createdAt,value
2019-03-16T00:01:56.485Z,2.60
2019-03-16T00:04:15.052Z,3.43
2019-03-16T00:06:41.706Z,3.17
2019-03-16T00:09:08.443Z,2.90
2019-03-16T00:11:34.881Z,3.23
2019-03-16T00:14:01.310Z,2.80
2019-03-16T00:16:27.951Z,2.77
2019-03-16T00:18:54.476Z,2.90
2019-03-16T00:21:21.021Z,2.70
2019-03-16T00:23:47.463Z,2.80
2019-03-16T00:26:14.197Z,2.43
2019-03-16T00:28:40.713Z,2.40
2019-03-16T00:31:07.368Z,2.60
2019-03-16T00:33:33.804Z,2.50
2019-03-16T00:36:00.340Z,3.00
2019-03-16T00:38:26.775Z,2.67
2019-03-16T00:40:53.309Z,2.70
2019-03-16T00:43:19.741Z,2.50
2019-03-16T00:45:46.276Z,2.57
2019-03-16T00:48:12.710Z,2.63
2019-03-16T00:50:39.145Z,2.23
2019-03-16T00:53:05.579Z,2.40
2019-03-16T00:55:32.117Z,2.57
2019-03-16T00:57:58.653Z,2.50
2019-03-16T01:00:25.188Z,2.53
2019-03-16T01:02:51.727Z,3.00
2019-03-16T01:05:19.656Z,2.40
2019-03-16T01:07:47.282Z,2.73
2019-03-16T01:10:14.965Z,2.33
2019-03-16T01:12:42.734Z,2.10
2019-03-16T01:15:11.463Z,2.50
2019-03-16T01:17:38.416Z,2.97
2019-03-16T01:20:08.134Z,2.50
2019-03-16T01:22:34.664Z,2.43
2019-03-16T01:25:01.144Z,2.73
2019-03-16T01:27:27.633Z,2.93
2019-03-16T01:29:54.269Z,3.70
2019-03-16T01:32:20.807Z,2.80
2019-03-16T01:34:47.649Z,3.00
2019-03-16T01:37:14.083Z,2.90
2019-03-16T01:39:40.619Z,2.90
2019-03-16T01:42:07.049Z,2.70
2019-03-16T01:44:33.671Z,2.93
2019-03-16T01:47:00.223Z,2.57
2019-03-16T01:49:26.656Z,2.60
2019-03-16T01:51:53.092Z,2.60
2019-03-16T01:54:19.509Z,2.20
2019-03-16T01:56:46.059Z,2.60
2019-03-16T01:59:12.491Z,2.50
2019-03-16T02:01:39.232Z,2.40
2019-03-16T02:04:05.668Z,1.93
2019-03-16T02:06:32.203Z,2.40
2019-03-16T02:08:58.635Z,2.90
2019-03-16T02:11:25.083Z,2.60
2019-03-16T02:13:51.605Z,2.50
2019-03-16T02:16:18.142Z,2.47
2019-03-16T02:18:44.575Z,2.53
2019-03-16T02:21:11.110Z,2.80
2019-03-16T02:23:37.543Z,2.73
2019-03-16T02:26:04.183Z,2.97
2019-03-16T02:28:30.620Z,2.80
2019-03-16T02:30:57.668Z,2.83
2019-03-16T02:33:24.203Z,3.00
2019-03-16T02:35:51.070Z,3.20
2019-03-16T02:38:17.482Z,3.40
2019-03-16T02:40:43.918Z,2.93
2019-03-16T02:43:10.454Z,2.90
2019-03-16T02:45:36.983Z,2.73
2019-03-16T02:48:03.402Z,2.80
2019-03-16T02:50:29.849Z,2.73
2019-03-16T02:52:56.386Z,2.20
2019-03-16T02:55:22.921Z,2.50
2019-03-16T02:57:49.356Z,2.10
2019-03-16T03:00:15.795Z,2.63
2019-03-16T03:02:42.429Z,2.93
2019-03-16T03:05:09.393Z,3.20
2019-03-16T03:07:36.011Z,2.27
2019-03-16T03:10:12.962Z,2.60
2019-03-16T03:12:39.428Z,2.57
2019-03-16T03:15:07.087Z,2.73
2019-03-16T03:17:33.520Z,2.40
2019-03-16T03:19:59.954Z,2.57
2019-03-16T03:22:28.274Z,2.60
2019-03-16T03:24:54.872Z,2.70
2019-03-16T03:27:21.301Z,3.30
2019-03-16T03:29:47.950Z,3.30
2019-03-16T03:32:14.483Z,3.73
2019-03-16T03:34:41.066Z,3.47
2019-03-16T03:37:07.551Z,3.53
2019-03-16T03:39:34.084Z,3.13
2019-03-16T03:42:00.721Z,2.53
2019-03-16T03:44:27.154Z,2.57
2019-03-16T03:46:53.588Z,2.83
2019-03-16T03:49:20.025Z,2.73
2019-03-16T03:51:46.764Z,2.73
2019-03-16T03:54:13.302Z,2.37
2019-03-16T03:56:39.835Z,2.97
2019-03-16T03:59:06.473Z,2.23
2019-03-16T04:01:32.911Z,2.07
2019-03-16T04:04:14.284Z,2.03
2019-03-16T04:06:28.032Z,1.57
2019-03-16T04:08:54.461Z,1.27
2019-03-16T04:11:21.314Z,1.40
2019-03-16T04:13:47.840Z,1.37
2019-03-16T04:16:14.382Z,1.40
2019-03-16T04:18:41.117Z,1.20
2019-03-16T04:21:07.550Z,1.50
2019-03-16T04:23:33.982Z,1.27
2019-03-16T04:26:00.519Z,1.43
2019-03-16T04:28:26.951Z,1.33
2019-03-16T04:30:54.819Z,1.00
2019-03-16T04:33:21.356Z,1.20
2019-03-16T04:35:47.892Z,1.10
2019-03-16T04:38:14.323Z,1.33
2019-03-16T04:40:40.762Z,1.60
2019-03-16T04:43:07.295Z,1.40
2019-03-16T04:45:33.831Z,1.60
2019-03-16T04:48:00.364Z,1.00
2019-03-16T04:50:26.799Z,1.07
2019-03-16T04:52:53.267Z,1.30
2019-03-16T04:55:19.871Z,1.53
2019-03-16T04:57:46.306Z,1.20
2019-03-16T05:00:13.563Z,1.30
2019-03-16T05:02:40.100Z,1.20
2019-03-16T05:05:07.042Z,1.40
2019-03-16T05:07:33.475Z,1.50
2019-03-16T05:09:59.909Z,1.10
2019-03-16T05:12:26.442Z,1.40
2019-03-16T05:14:52.979Z,1.43
2019-03-16T05:17:19.412Z,1.30
2019-03-16T05:19:45.844Z,1.27
2019-03-16T05:22:12.277Z,1.73
2019-03-16T05:24:39.120Z,2.40
2019-03-16T05:27:05.556Z,1.67
2019-03-16T05:29:32.094Z,1.53
2019-03-16T05:31:58.732Z,1.10
2019-03-16T05:34:25.576Z,1.43
2019-03-16T05:36:52.004Z,1.10
2019-03-16T05:39:18.439Z,1.23
2019-03-16T05:41:44.870Z,1.13
2019-03-16T05:44:11.409Z,1.10
2019-03-16T05:46:37.945Z,1.50
2019-03-16T05:49:04.430Z,1.30
2019-03-16T05:51:31.015Z,1.47
2019-03-16T05:53:57.551Z,1.40
2019-03-16T05:56:24.087Z,1.27
2019-03-16T05:58:50.625Z,1.10
2019-03-16T06:01:17.056Z,1.13
2019-03-16T06:03:43.596Z,1.20
2019-03-16T06:06:10.129Z,1.27
2019-03-16T06:08:36.664Z,1.30
2019-03-16T06:11:03.097Z,1.17
2019-03-16T06:13:29.532Z,1.27
2019-03-16T06:15:56.375Z,1.00
2019-03-16T06:18:46.094Z,1.40
2019-03-16T06:21:12.691Z,1.40
2019-03-16T06:23:39.233Z,1.20
2019-03-16T06:26:07.607Z,1.37
2019-03-16T06:28:34.144Z,1.30
2019-03-16T06:31:00.576Z,1.30
2019-03-16T06:33:27.009Z,1.30
2019-03-16T06:35:53.649Z,1.03
2019-03-16T06:38:20.082Z,1.37
2019-03-16T06:40:46.518Z,1.00
2019-03-16T06:43:12.950Z,1.03
2019-03-16T06:45:39.487Z,1.00
2019-03-16T06:48:06.023Z,0.97
2019-03-16T06:50:32.458Z,0.90
2019-03-16T06:52:58.996Z,1.10
2019-03-16T06:55:25.526Z,1.03
2019-03-16T06:57:51.961Z,1.40
2019-03-16T07:00:18.397Z,1.20
2019-03-16T07:02:44.931Z,1.10
2019-03-16T07:05:12.388Z,1.30
2019-03-16T07:07:40.715Z,1.33
2019-03-16T07:10:11.149Z,1.57
2019-03-16T07:12:37.628Z,1.50
2019-03-16T07:15:07.676Z,1.50
2019-03-16T07:17:34.262Z,1.50
2019-03-16T07:20:01.026Z,1.30
2019-03-16T07:22:27.665Z,2.00
2019-03-16T07:24:54.305Z,1.93
2019-03-16T07:27:26.016Z,1.97
2019-03-16T07:29:49.160Z,1.70
2019-03-16T07:32:15.647Z,1.67
2019-03-16T07:34:42.184Z,1.50
2019-03-16T07:37:09.538Z,1.40
2019-03-16T07:39:35.974Z,1.90
2019-03-16T07:42:02.409Z,0.77
2019-03-16T07:44:28.839Z,0.80
2019-03-16T07:46:55.377Z,1.00
2019-03-16T07:49:21.809Z,0.93
2019-03-16T07:51:48.344Z,1.50
2019-03-16T07:54:14.764Z,2.13
2019-03-16T07:56:41.314Z,2.70
2019-03-16T07:59:07.755Z,2.20
2019-03-16T08:01:34.181Z,2.27
2019-03-16T08:04:00.718Z,2.50
2019-03-16T08:06:27.253Z,3.10
2019-03-16T08:08:53.694Z,2.83
2019-03-16T08:11:20.329Z,2.63
2019-03-16T08:13:46.762Z,2.97
2019-03-16T08:16:13.293Z,2.20
2019-03-16T08:18:39.729Z,2.60
2019-03-16T08:21:06.631Z,2.73
2019-03-16T08:23:33.107Z,2.43
2019-03-16T08:25:59.643Z,1.33
2019-03-16T08:28:28.431Z,1.00
2019-03-16T08:30:56.855Z,0.90
2019-03-16T08:33:23.243Z,1.13
2019-03-16T08:35:49.782Z,1.03
2019-03-16T08:38:16.519Z,1.23
2019-03-16T08:40:42.956Z,1.27
2019-03-16T08:43:09.389Z,1.20
2019-03-16T08:45:35.922Z,1.23
2019-03-16T08:48:02.738Z,1.00
2019-03-16T08:50:36.673Z,1.00
2019-03-16T08:53:03.461Z,1.50
2019-03-16T08:55:30.056Z,0.90
2019-03-16T08:58:05.650Z,1.00
2019-03-16T09:00:24.867Z,1.00
2019-03-16T09:02:51.301Z,0.93
2019-03-16T09:05:17.846Z,1.10
2019-03-16T09:07:44.382Z,1.13
2019-03-16T09:10:10.993Z,0.90
2019-03-16T09:12:39.596Z,0.80
2019-03-16T09:15:11.953Z,1.10
2019-03-16T09:17:52.358Z,1.07
2019-03-16T09:20:16.814Z,0.80
2019-03-16T09:22:43.453Z,1.27
2019-03-16T09:25:11.636Z,1.03
2019-03-16T09:27:38.061Z,1.20
2019-03-16T09:30:08.078Z,1.97
2019-03-16T09:32:34.616Z,2.30
2019-03-16T09:35:01.151Z,2.90
2019-03-16T09:37:27.890Z,1.87
2019-03-16T09:39:54.734Z,2.00
2019-03-16T09:42:21.335Z,1.90
2019-03-16T09:44:49.620Z,1.10
2019-03-16T09:47:27.041Z,1.40
2019-03-16T09:49:56.649Z,0.90
2019-03-16T09:52:32.299Z,0.67
2019-03-16T09:54:58.833Z,0.70
2019-03-16T09:57:25.368Z,0.67
2019-03-16T09:59:51.910Z,0.60
2019-03-16T10:02:18.799Z,0.40
2019-03-16T10:04:45.388Z,1.20
2019-03-16T10:07:11.926Z,1.20
2019-03-16T10:09:38.466Z,0.90
2019-03-16T10:12:05.302Z,0.70
2019-03-16T10:14:31.843Z,1.10
2019-03-16T10:16:58.374Z,0.70
2019-03-16T10:19:24.918Z,0.60
2019-03-16T10:21:51.549Z,0.70
2019-03-16T10:24:18.086Z,0.70
2019-03-16T10:26:44.626Z,0.67
2019-03-16T10:29:11.156Z,0.70
2019-03-16T10:31:37.691Z,0.70
2019-03-16T10:34:04.227Z,0.50
2019-03-16T10:36:30.764Z,0.40
2019-03-16T10:38:57.299Z,0.50
2019-03-16T10:41:24.144Z,0.70
2019-03-16T10:43:50.679Z,0.60
2019-03-16T10:46:17.217Z,1.00
2019-03-16T10:48:43.750Z,0.70
2019-03-16T10:51:10.396Z,0.70
2019-03-16T10:53:36.940Z,0.50
2019-03-16T10:56:03.459Z,0.50
2019-03-16T10:58:30.454Z,0.67
2019-03-16T11:00:56.940Z,0.70
2019-03-16T11:03:23.477Z,0.60
2019-03-16T11:05:50.016Z,0.60
2019-03-16T11:08:16.549Z,0.70
2019-03-16T11:10:42.985Z,0.77
2019-03-16T11:13:09.518Z,1.00
2019-03-16T11:15:37.794Z,0.60
2019-03-16T11:18:04.227Z,0.80
2019-03-16T11:20:30.765Z,1.00
2019-03-16T11:22:57.199Z,0.73
2019-03-16T11:25:23.736Z,1.00
2019-03-16T11:27:50.274Z,0.80
2019-03-16T11:30:18.580Z,0.70
2019-03-16T11:32:45.085Z,1.07
2019-03-16T11:35:11.752Z,1.10
2019-03-16T11:37:38.360Z,1.00
2019-03-16T11:40:16.266Z,1.20
2019-03-16T11:42:43.107Z,1.37
2019-03-16T11:45:10.963Z,1.30
2019-03-16T11:47:37.408Z,1.10
2019-03-16T11:50:06.326Z,1.33
2019-03-16T11:52:34.019Z,1.70
2019-03-16T11:55:00.598Z,1.87
2019-03-16T11:57:27.030Z,1.50
2019-03-16T11:59:53.463Z,1.33
2019-03-16T12:02:20.000Z,1.50
2019-03-16T12:04:46.543Z,1.60
2019-03-16T12:07:13.071Z,1.30
2019-03-16T12:09:39.506Z,1.57
2019-03-16T12:12:06.042Z,1.30
2019-03-16T12:14:32.577Z,1.20
2019-03-16T12:16:59.010Z,1.37
2019-03-16T12:19:25.444Z,1.10
2019-03-16T12:21:52.494Z,1.17
2019-03-16T12:24:19.029Z,1.33
2019-03-16T12:26:45.565Z,1.43
2019-03-16T12:29:11.997Z,2.30
2019-03-16T12:31:38.692Z,1.43
2019-03-16T12:34:05.174Z,1.63
2019-03-16T12:36:31.708Z,1.50
2019-03-16T12:38:58.140Z,1.43
2019-03-16T12:41:24.582Z,2.20
2019-03-16T12:43:51.315Z,1.77
2019-03-16T12:46:19.594Z,2.00
2019-03-16T12:48:46.026Z,1.80
2019-03-16T12:51:12.669Z,1.40
2019-03-16T12:53:39.611Z,1.50
2019-03-16T12:56:06.425Z,1.40
2019-03-16T12:58:36.461Z,1.60
2019-03-16T13:01:03.213Z,1.30
2019-03-16T13:03:29.746Z,1.73
2019-03-16T13:05:56.282Z,1.50
2019-03-16T13:08:22.828Z,0.97
2019-03-16T13:10:49.237Z,0.93
2019-03-16T13:13:16.097Z,1.20
2019-03-16T13:15:42.634Z,1.30
2019-03-16T13:18:09.065Z,1.20
2019-03-16T13:20:35.911Z,1.23
2019-03-16T13:23:02.660Z,1.13
2019-03-16T13:25:29.286Z,1.20
2019-03-16T13:27:55.823Z,0.80
2019-03-16T13:30:22.358Z,1.00
2019-03-16T13:32:48.791Z,1.00
2019-03-16T13:35:15.345Z,1.53
2019-03-16T13:37:42.071Z,1.23
2019-03-16T13:40:14.250Z,0.97
2019-03-16T13:42:42.504Z,0.93
2019-03-16T13:45:11.159Z,0.63
2019-03-16T13:47:37.944Z,0.80
2019-03-16T13:50:16.029Z,0.67
2019-03-16T13:52:42.896Z,0.90
2019-03-16T13:55:09.649Z,0.70
2019-03-16T13:57:36.169Z,0.60
2019-03-16T14:00:11.791Z,0.80
2019-03-16T14:02:34.889Z,0.87
2019-03-16T14:05:01.414Z,0.77
2019-03-16T14:07:28.454Z,0.70
2019-03-16T14:09:55.196Z,0.70
2019-03-16T14:12:21.632Z,0.87
2019-03-16T14:14:48.578Z,0.73
2019-03-16T14:17:16.442Z,0.70
2019-03-16T14:19:42.915Z,0.65
2019-03-16T14:22:09.571Z,0.80
2019-03-16T14:24:36.151Z,0.90
2019-03-16T14:27:02.994Z,0.70
2019-03-16T14:29:29.545Z,0.82
2019-03-16T14:31:56.067Z,0.90
2019-03-16T14:34:22.500Z,0.60
2019-03-16T14:36:49.035Z,0.60
2019-03-16T14:39:15.572Z,0.70
2019-03-16T14:41:42.006Z,0.70
2019-03-16T14:44:08.438Z,1.20
2019-03-16T14:46:35.287Z,1.70
2019-03-16T14:49:01.716Z,1.98
2019-03-16T14:51:28.150Z,2.33
2019-03-16T14:53:54.587Z,2.60
2019-03-16T14:56:21.120Z,2.22
2019-03-16T14:58:47.555Z,1.90
2019-03-16T15:01:14.091Z,1.50
2019-03-16T15:03:40.523Z,2.12
2019-03-16T15:06:08.608Z,1.95
2019-03-16T15:08:35.134Z,1.67
2019-03-16T15:11:01.668Z,1.30
2019-03-16T15:13:28.134Z,1.10
2019-03-16T15:15:58.683Z,1.00
2019-03-16T15:18:25.164Z,1.12
2019-03-16T15:20:51.911Z,0.70
2019-03-16T15:23:18.340Z,0.90
2019-03-16T15:25:44.878Z,1.10
2019-03-16T15:28:11.308Z,1.15
2019-03-16T15:30:49.762Z,1.50
2019-03-16T15:33:06.125Z,1.07
2019-03-16T15:35:32.656Z,1.20
2019-03-16T15:37:59.198Z,1.12
2019-03-16T15:40:26.856Z,1.40
2019-03-16T15:42:53.296Z,1.17
2019-03-16T15:45:28.021Z,1.20
2019-03-16T15:47:54.558Z,1.30
2019-03-16T15:50:20.994Z,1.45
2019-03-16T15:52:47.426Z,1.25
2019-03-16T15:55:13.969Z,1.22
2019-03-16T15:57:42.484Z,1.55
2019-03-16T16:00:15.027Z,1.47
2019-03-16T16:02:41.652Z,1.10
2019-03-16T16:05:08.497Z,1.10
2019-03-16T16:07:35.530Z,0.80
2019-03-16T16:10:04.348Z,0.93
2019-03-16T16:12:30.868Z,0.95
2019-03-16T16:14:57.340Z,1.30
2019-03-16T16:17:24.351Z,1.22
2019-03-16T16:19:51.092Z,1.00
2019-03-16T16:22:17.838Z,1.27
2019-03-16T16:24:44.370Z,1.02
2019-03-16T16:27:10.909Z,1.30
2019-03-16T16:29:37.646Z,1.52
2019-03-16T16:32:04.083Z,1.20
2019-03-16T16:34:30.614Z,1.50
2019-03-16T16:36:57.047Z,1.52
2019-03-16T16:39:23.482Z,1.40
2019-03-16T16:41:50.118Z,0.95
2019-03-16T16:44:16.552Z,1.40
2019-03-16T16:46:43.089Z,1.25
2019-03-16T16:49:09.624Z,1.20
2019-03-16T16:51:36.056Z,1.55
2019-03-16T16:54:02.593Z,0.88
2019-03-16T16:56:29.173Z,1.42
2019-03-16T16:58:55.666Z,1.62
2019-03-16T17:01:29.158Z,1.42
2019-03-16T17:03:50.477Z,1.42
2019-03-16T17:06:17.015Z,1.25
2019-03-16T17:08:43.449Z,1.50
2019-03-16T17:11:09.880Z,1.45
2019-03-16T17:13:36.520Z,1.30
2019-03-16T17:16:03.157Z,1.30
2019-03-16T17:18:30.001Z,1.37
2019-03-16T17:20:58.689Z,1.67
2019-03-16T17:23:25.120Z,1.63
2019-03-16T17:25:51.658Z,1.70
2019-03-16T17:28:18.094Z,1.90
2019-03-16T17:30:44.631Z,1.77
2019-03-16T17:33:11.167Z,1.53
2019-03-16T17:35:38.052Z,1.72
2019-03-16T17:38:04.646Z,1.63
2019-03-16T17:40:31.181Z,1.60
2019-03-16T17:42:57.715Z,2.30
2019-03-16T17:45:24.457Z,1.47
2019-03-16T17:47:50.892Z,1.23
2019-03-16T17:50:17.437Z,2.97
2019-03-16T17:52:43.961Z,1.53
2019-03-16T17:55:11.935Z,1.87
2019-03-16T17:57:38.467Z,1.20
2019-03-16T18:00:19.062Z,1.37
2019-03-16T18:02:51.637Z,1.40
2019-03-16T18:05:14.254Z,1.93
2019-03-16T18:07:40.893Z,1.30
2019-03-16T18:10:12.036Z,1.43
2019-03-16T18:12:39.703Z,1.53
2019-03-16T18:15:12.031Z,1.30
2019-03-16T18:17:38.825Z,1.20
2019-03-16T18:20:08.774Z,1.30
2019-03-16T18:22:35.265Z,1.40
2019-03-16T18:25:01.904Z,1.03
2019-03-16T18:27:28.464Z,1.30
2019-03-16T18:29:54.973Z,1.43
2019-03-16T18:32:21.410Z,1.30
2019-03-16T18:34:47.942Z,0.90
2019-03-16T18:37:14.375Z,1.20
2019-03-16T18:39:40.913Z,1.10
2019-03-16T18:42:08.676Z,0.90
2019-03-16T18:44:35.214Z,1.10
2019-03-16T18:47:01.768Z,1.03
2019-03-16T18:49:28.490Z,1.43
2019-03-16T18:51:54.923Z,1.80
2019-03-16T18:54:21.459Z,1.60
2019-03-16T18:56:47.994Z,1.57
2019-03-16T18:59:14.427Z,1.37
2019-03-16T19:01:40.863Z,1.47
2019-03-16T19:04:07.294Z,1.47
2019-03-16T19:06:34.368Z,1.50
2019-03-16T19:09:02.728Z,1.30
2019-03-16T19:11:51.077Z,1.60
2019-03-16T19:14:17.710Z,2.80
2019-03-16T19:16:44.260Z,2.20
2019-03-16T19:19:10.782Z,2.40
2019-03-16T19:21:37.321Z,2.07
2019-03-16T19:24:03.860Z,2.10
2019-03-16T19:26:30.408Z,3.13
2019-03-16T19:28:56.929Z,2.23
2019-03-16T19:31:23.464Z,1.33
2019-03-16T19:33:52.744Z,1.53
2019-03-16T19:36:20.783Z,1.80
2019-03-16T19:38:47.268Z,1.30
2019-03-16T19:41:13.804Z,1.53
2019-03-16T19:43:43.221Z,1.57
2019-03-16T19:46:09.745Z,1.63
2019-03-16T19:48:36.385Z,1.20
2019-03-16T19:51:04.402Z,1.50
2019-03-16T19:53:31.275Z,1.47
2019-03-16T19:56:02.550Z,1.50
2019-03-16T19:58:29.077Z,1.50
2019-03-16T20:01:00.750Z,1.27
2019-03-16T20:03:27.272Z,1.20
2019-03-16T20:05:56.567Z,1.60
2019-03-16T20:08:24.449Z,1.43
2019-03-16T20:10:50.980Z,1.33
2019-03-16T20:13:17.610Z,1.33
2019-03-16T20:15:45.047Z,1.53
2019-03-16T20:18:11.606Z,1.07
2019-03-16T20:20:43.445Z,1.67
2019-03-16T20:23:11.751Z,1.23
2019-03-16T20:25:41.351Z,1.20
2019-03-16T20:28:09.010Z,1.23
2019-03-16T20:30:35.651Z,1.40
2019-03-16T20:33:04.532Z,1.30
2019-03-16T20:35:32.875Z,1.30
2019-03-16T20:38:05.877Z,1.60
2019-03-16T20:40:32.343Z,1.60
2019-03-16T20:42:58.774Z,1.07
2019-03-16T20:45:25.361Z,1.30
2019-03-16T20:47:51.948Z,1.47
2019-03-16T20:50:19.210Z,1.20
2019-03-16T20:52:46.149Z,1.40
2019-03-16T20:55:14.121Z,1.03
2019-03-16T20:57:40.822Z,1.10
2019-03-16T21:00:13.742Z,1.27
2019-03-16T21:02:40.691Z,1.17
2019-03-16T21:05:08.759Z,1.40
2019-03-16T21:07:35.299Z,1.77
2019-03-16T21:10:01.831Z,1.60
2019-03-16T21:12:29.902Z,1.30
2019-03-16T21:14:56.541Z,2.13
2019-03-16T21:17:23.077Z,1.70
2019-03-16T21:19:49.613Z,1.37
2019-03-16T21:22:16.148Z,1.27
2019-03-16T21:24:42.686Z,1.03
2019-03-16T21:27:09.237Z,1.20
2019-03-16T21:29:35.757Z,1.17
2019-03-16T21:32:02.307Z,1.43
2019-03-16T21:34:28.832Z,2.10
2019-03-16T21:36:55.370Z,1.10
2019-03-16T21:39:21.903Z,1.40
2019-03-16T21:41:48.444Z,1.77
2019-03-16T21:44:14.975Z,1.47
2019-03-16T21:46:44.008Z,1.13
2019-03-16T21:49:10.606Z,1.50
2019-03-16T21:51:37.425Z,1.47
2019-03-16T21:54:04.395Z,1.30
2019-03-16T21:56:30.931Z,1.93
2019-03-16T21:58:57.466Z,1.60
2019-03-16T22:01:24.001Z,1.47
2019-03-16T22:03:50.434Z,1.40
2019-03-16T22:06:16.977Z,2.07
2019-03-16T22:08:43.505Z,1.60
2019-03-16T22:11:10.349Z,1.67
2019-03-16T22:13:36.883Z,1.67
2019-03-16T22:16:03.528Z,1.40
2019-03-16T22:18:30.058Z,1.40
2019-03-16T22:20:56.596Z,1.67
2019-03-16T22:23:23.131Z,1.60
2019-03-16T22:25:49.871Z,1.30
2019-03-16T22:28:16.407Z,1.40
2019-03-16T22:30:42.841Z,1.53
2019-03-16T22:33:09.274Z,1.67
2019-03-16T22:35:36.321Z,1.67
2019-03-16T22:38:02.863Z,1.57
2019-03-16T22:40:29.291Z,1.37
2019-03-16T22:42:55.829Z,1.60
2019-03-16T22:45:24.107Z,1.40
2019-03-16T22:47:50.688Z,1.40
2019-03-16T22:50:18.514Z,1.20
2019-03-16T22:52:48.701Z,1.40
2019-03-16T22:55:37.132Z,1.63
2019-03-16T22:58:03.817Z,1.60
2019-03-16T23:00:46.945Z,1.33
2019-03-16T23:03:13.789Z,1.10
2019-03-16T23:05:45.547Z,1.10
2019-03-16T23:08:13.930Z,1.70
2019-03-16T23:10:40.870Z,1.57
2019-03-16T23:13:07.512Z,1.37
2019-03-16T23:15:34.148Z,1.33
2019-03-16T23:18:00.683Z,1.43
2019-03-16T23:20:27.221Z,1.17
2019-03-16T23:22:53.752Z,1.40
2019-03-16T23:25:20.289Z,1.47
2019-03-16T23:27:46.855Z,0.93
2019-03-16T23:30:13.565Z,1.30
2019-03-16T23:32:40.102Z,1.20
2019-03-16T23:35:07.460Z,1.50
2019-03-16T23:37:33.992Z,1.10
2019-03-16T23:40:00.576Z,1.40
2019-03-16T23:42:28.295Z,1.40
2019-03-16T23:44:54.829Z,1.17
2019-03-16T23:47:21.366Z,1.20
2019-03-16T23:49:47.904Z,1.20
2019-03-16T23:52:14.440Z,1.17
2019-03-16T23:54:41.084Z,1.30
2019-03-16T23:57:07.610Z,1.30
2019-03-16T23:59:34.147Z,1.10
